createdAt,value
2022-11-07T00:01:15.610Z,9.40
2022-11-07T00:03:42.621Z,9.50
2022-11-07T00:06:09.561Z,9.40
2022-11-07T00:08:36.683Z,9.40
2022-11-07T00:11:05.434Z,9.40
2022-11-07T00:13:33.093Z,9.40
2022-11-07T00:16:06.177Z,9.30
2022-11-07T00:18:33.715Z,9.40
2022-11-07T00:21:06.085Z,9.30
2022-11-07T00:23:33.514Z,9.30
2022-11-07T00:26:08.302Z,9.30
2022-11-07T00:28:36.387Z,9.30
2022-11-07T00:31:03.975Z,9.30
2022-11-07T00:33:31.069Z,9.30
2022-11-07T00:35:58.177Z,9.20
2022-11-07T00:38:25.184Z,9.20
2022-11-07T00:41:00.135Z,9.20
2022-11-07T00:43:27.644Z,9.20
2022-11-07T00:45:54.938Z,9.20
2022-11-07T00:48:22.228Z,9.10
2022-11-07T00:50:49.357Z,9.10
2022-11-07T00:53:16.923Z,9.10
2022-11-07T00:55:44.210Z,9.10
2022-11-07T00:58:14.076Z,9.10
2022-11-07T01:00:41.498Z,9.10
2022-11-07T01:03:27.445Z,9.00
2022-11-07T01:06:02.417Z,9.00
2022-11-07T01:08:30.255Z,9.00
2022-11-07T01:10:58.465Z,8.90
2022-11-07T01:13:26.484Z,8.90
2022-11-07T01:15:53.456Z,8.90
2022-11-07T01:18:20.883Z,8.90
2022-11-07T01:20:49.258Z,8.90
2022-11-07T01:23:18.015Z,8.90
2022-11-07T01:25:45.298Z,8.90
2022-11-07T01:28:12.266Z,8.90
2022-11-07T01:30:44.173Z,8.90
2022-11-07T01:33:11.794Z,8.90
2022-11-07T01:35:39.040Z,8.90
2022-11-07T01:38:06.305Z,8.90
2022-11-07T01:40:53.843Z,8.90
2022-11-07T01:43:20.859Z,8.90
2022-11-07T01:45:48.198Z,8.90
2022-11-07T01:48:15.157Z,8.90
2022-11-07T01:50:42.217Z,8.90
2022-11-07T01:53:09.938Z,8.90
2022-11-07T01:55:37.475Z,8.90
2022-11-07T01:58:08.606Z,8.90
2022-11-07T02:00:37.031Z,8.90
2022-11-07T02:03:09.743Z,8.90
2022-11-07T02:05:47.958Z,8.90
2022-11-07T02:08:16.235Z,8.90
2022-11-07T02:10:44.551Z,8.80
2022-11-07T02:13:17.909Z,8.90
2022-11-07T02:15:44.998Z,8.80
2022-11-07T02:18:11.993Z,8.80
2022-11-07T02:20:39.106Z,8.80
2022-11-07T02:23:12.056Z,8.80
2022-11-07T02:25:39.560Z,8.80
2022-11-07T02:28:10.141Z,8.70
2022-11-07T02:30:38.957Z,8.70
2022-11-07T02:33:20.755Z,8.60
2022-11-07T02:35:52.117Z,8.60
2022-11-07T02:38:26.827Z,8.60
2022-11-07T02:41:31.922Z,8.50
2022-11-07T02:44:04.093Z,8.50
2022-11-07T02:46:32.867Z,8.50
2022-11-07T02:49:01.085Z,8.40
2022-11-07T02:51:28.601Z,8.40
2022-11-07T02:53:55.653Z,8.40
2022-11-07T02:56:23.573Z,8.40
2022-11-07T02:58:52.521Z,8.40
2022-11-07T03:01:20.939Z,8.40
2022-11-07T03:03:49.745Z,8.40
2022-11-07T03:06:20.953Z,8.30
2022-11-07T03:08:47.979Z,8.30
2022-11-07T03:11:19.781Z,8.30
2022-11-07T03:13:48.917Z,8.30
2022-11-07T03:16:17.675Z,8.30
2022-11-07T03:18:44.860Z,8.30
2022-11-07T03:21:11.976Z,8.30
2022-11-07T03:23:38.881Z,8.30
2022-11-07T03:26:06.639Z,8.30
2022-11-07T03:28:33.880Z,8.30
2022-11-07T03:31:05.017Z,8.30
2022-11-07T03:33:32.580Z,8.30
2022-11-07T03:35:59.641Z,8.30
2022-11-07T03:38:26.662Z,8.20
2022-11-07T03:40:53.651Z,8.20
2022-11-07T03:43:20.668Z,8.20
2022-11-07T03:45:47.674Z,8.20
2022-11-07T03:48:14.675Z,8.20
2022-11-07T03:50:41.755Z,8.20
2022-11-07T03:53:08.729Z,8.10
2022-11-07T03:55:35.705Z,8.10
2022-11-07T03:58:02.709Z,8.10
2022-11-07T04:00:29.785Z,8.10
2022-11-07T04:02:56.899Z,8.10
2022-11-07T04:05:24.074Z,8.10
2022-11-07T04:07:51.131Z,8.10
2022-11-07T04:10:18.103Z,8.10
2022-11-07T04:13:17.627Z,8.10
2022-11-07T04:16:04.861Z,8.10
2022-11-07T04:18:31.790Z,8.10
2022-11-07T04:20:58.792Z,8.10
2022-11-07T04:23:25.758Z,8.10
2022-11-07T04:26:11.090Z,8.10
2022-11-07T04:28:38.053Z,8.00
2022-11-07T04:31:05.137Z,8.00
2022-11-07T04:33:32.110Z,8.00
2022-11-07T04:35:59.264Z,8.00
2022-11-07T04:38:26.187Z,8.00
2022-11-07T04:40:57.584Z,7.90
2022-11-07T04:43:26.167Z,7.90
2022-11-07T04:45:53.507Z,7.90
2022-11-07T04:48:20.626Z,7.90
2022-11-07T04:50:48.051Z,7.90
2022-11-07T04:53:17.790Z,7.90
2022-11-07T04:55:44.992Z,7.90
2022-11-07T04:58:11.999Z,7.90
2022-11-07T05:00:39.023Z,7.90
2022-11-07T05:03:06.080Z,7.90
2022-11-07T05:05:33.153Z,7.80
2022-11-07T05:08:00.098Z,7.80
2022-11-07T05:10:28.933Z,7.80
2022-11-07T05:12:56.632Z,7.80
2022-11-07T05:15:24.076Z,7.70
2022-11-07T05:17:51.190Z,7.80
2022-11-07T05:20:35.884Z,7.70
2022-11-07T05:23:13.643Z,7.70
2022-11-07T05:25:49.602Z,7.70
2022-11-07T05:28:36.993Z,7.60
2022-11-07T05:31:06.987Z,7.60
2022-11-07T05:33:34.721Z,7.60
2022-11-07T05:36:19.508Z,7.50
2022-11-07T05:38:49.066Z,7.50
2022-11-07T05:41:18.342Z,7.50
2022-11-07T05:43:45.666Z,7.50
2022-11-07T05:46:12.786Z,7.50
2022-11-07T05:48:39.777Z,7.50
2022-11-07T05:51:08.668Z,7.50
2022-11-07T05:53:36.236Z,7.50
2022-11-07T05:56:03.461Z,7.50
2022-11-07T05:58:30.527Z,7.50
2022-11-07T06:01:04.919Z,7.40
2022-11-07T06:03:32.792Z,7.40
2022-11-07T06:06:00.025Z,7.40
2022-11-07T06:08:27.037Z,7.40
2022-11-07T06:10:54.017Z,7.40
2022-11-07T06:13:21.001Z,7.50
2022-11-07T06:15:48.332Z,7.50
2022-11-07T06:18:18.772Z,7.50
2022-11-07T06:20:46.128Z,7.50
2022-11-07T06:23:13.755Z,7.50
2022-11-07T06:25:41.472Z,7.50
2022-11-07T06:28:10.720Z,7.50
2022-11-07T06:30:38.337Z,7.60
2022-11-07T06:33:07.733Z,7.70
2022-11-07T06:35:35.489Z,7.70
2022-11-07T06:38:04.390Z,7.70
2022-11-07T06:40:31.770Z,7.80
2022-11-07T06:43:19.477Z,7.80
2022-11-07T06:45:47.608Z,7.90
2022-11-07T06:48:15.414Z,7.90
2022-11-07T06:50:42.568Z,8.00
2022-11-07T06:53:12.489Z,8.10
2022-11-07T06:55:40.074Z,8.30
2022-11-07T06:58:07.497Z,8.70
2022-11-07T07:00:36.239Z,9.10
2022-11-07T07:03:03.716Z,9.40
2022-11-07T07:05:31.887Z,9.80
2022-11-07T07:07:58.941Z,10.20
2022-11-07T07:10:26.127Z,10.50
2022-11-07T07:12:53.920Z,10.60
2022-11-07T07:15:21.361Z,10.60
2022-11-07T07:17:48.876Z,10.50
2022-11-07T07:20:15.925Z,10.40
2022-11-07T07:22:45.247Z,10.40
2022-11-07T07:25:12.243Z,10.50
2022-11-07T07:27:39.178Z,10.70
2022-11-07T07:30:08.183Z,10.80
2022-11-07T07:32:38.352Z,10.90
2022-11-07T07:35:05.877Z,10.90
2022-11-07T07:37:33.526Z,11.00
2022-11-07T07:40:00.453Z,11.00
2022-11-07T07:42:27.493Z,11.10
2022-11-07T07:44:54.786Z,11.10
2022-11-07T07:47:21.777Z,11.10
2022-11-07T07:49:48.724Z,11.10
2022-11-07T07:52:15.773Z,11.10
2022-11-07T07:54:42.713Z,11.20
2022-11-07T07:57:09.649Z,11.20
2022-11-07T07:59:36.646Z,11.30
2022-11-07T08:02:03.711Z,11.40
2022-11-07T08:04:30.746Z,11.50
2022-11-07T08:06:57.671Z,11.60
2022-11-07T08:09:24.659Z,11.70
2022-11-07T08:11:51.616Z,11.80
2022-11-07T08:14:18.696Z,11.90
2022-11-07T08:16:45.689Z,12.00
2022-11-07T08:19:12.797Z,12.10
2022-11-07T08:21:39.758Z,12.20
2022-11-07T08:24:07.263Z,12.30
2022-11-07T08:26:35.255Z,12.40
2022-11-07T08:29:02.234Z,12.50
2022-11-07T08:31:29.282Z,12.60
2022-11-07T08:34:00.385Z,12.70
2022-11-07T08:36:28.323Z,12.80
2022-11-07T08:38:55.375Z,12.90
2022-11-07T08:41:22.716Z,13.00
2022-11-07T08:43:49.973Z,13.10
2022-11-07T08:46:16.968Z,13.10
2022-11-07T08:48:43.839Z,13.20
2022-11-07T08:51:10.833Z,13.30
2022-11-07T08:53:37.728Z,13.50
2022-11-07T08:56:10.386Z,13.60
2022-11-07T08:58:37.998Z,13.70
2022-11-07T09:01:07.344Z,13.80
2022-11-07T09:03:50.131Z,13.90
2022-11-07T09:06:18.029Z,13.90
2022-11-07T09:08:45.250Z,14.00
2022-11-07T09:11:15.691Z,14.00
2022-11-07T09:13:42.881Z,14.00
2022-11-07T09:16:10.649Z,14.10
2022-11-07T09:18:37.671Z,14.20
2022-11-07T09:21:04.955Z,14.20
2022-11-07T09:23:31.964Z,14.40
2022-11-07T09:26:00.961Z,14.40
2022-11-07T09:28:28.571Z,14.50
2022-11-07T09:30:56.849Z,14.60
2022-11-07T09:33:24.411Z,14.70
2022-11-07T09:35:51.524Z,14.70
2022-11-07T09:38:18.883Z,14.90
2022-11-07T09:41:08.033Z,14.90
2022-11-07T09:43:43.753Z,15.00
2022-11-07T09:46:38.306Z,15.10
2022-11-07T09:49:16.751Z,15.20
2022-11-07T09:51:50.112Z,15.30
2022-11-07T09:54:27.918Z,15.40
2022-11-07T09:56:58.049Z,15.40
2022-11-07T09:59:41.507Z,15.60
2022-11-07T10:02:19.443Z,15.70
2022-11-07T10:04:49.350Z,15.80
2022-11-07T10:07:17.685Z,15.90
2022-11-07T10:09:55.309Z,15.90
2022-11-07T10:12:44.523Z,16.00
2022-11-07T10:15:14.798Z,16.10
2022-11-07T10:17:44.711Z,16.20
2022-11-07T10:20:37.717Z,16.30
2022-11-07T10:23:22.612Z,16.30
2022-11-07T10:26:05.056Z,16.40
2022-11-07T10:28:33.713Z,16.50
2022-11-07T10:31:02.157Z,16.60
2022-11-07T10:33:39.965Z,16.60
2022-11-07T10:36:28.912Z,16.70
2022-11-07T10:38:56.092Z,16.80
2022-11-07T10:41:23.060Z,16.90
2022-11-07T10:43:59.155Z,16.90
2022-11-07T10:46:34.631Z,17.00
2022-11-07T10:49:03.145Z,17.00
2022-11-07T10:51:41.296Z,17.10
2022-11-07T10:54:37.136Z,17.10
2022-11-07T10:57:09.148Z,17.20
2022-11-07T10:59:48.436Z,17.20
2022-11-07T11:02:21.760Z,17.30
2022-11-07T11:04:55.206Z,17.40
2022-11-07T11:07:28.600Z,17.50
2022-11-07T11:09:59.067Z,17.70
2022-11-07T11:12:34.275Z,17.70
2022-11-07T11:15:12.126Z,17.80
2022-11-07T11:17:39.443Z,17.90
2022-11-07T11:20:23.439Z,17.90
2022-11-07T11:22:52.736Z,18.00
2022-11-07T11:25:21.946Z,18.10
2022-11-07T11:27:55.598Z,18.20
2022-11-07T11:30:22.699Z,18.20
2022-11-07T11:32:57.343Z,18.20
2022-11-07T11:35:47.727Z,18.30
2022-11-07T11:38:23.216Z,18.30
2022-11-07T11:41:04.661Z,18.30
2022-11-07T11:43:46.584Z,18.40
2022-11-07T11:46:54.988Z,18.40
2022-11-07T11:49:30.137Z,18.50
2022-11-07T11:52:01.558Z,18.50
2022-11-07T11:54:28.597Z,18.50
2022-11-07T11:57:02.736Z,18.50
2022-11-07T11:59:47.489Z,18.50
2022-11-07T12:02:37.338Z,18.50
2022-11-07T12:05:35.209Z,18.50
2022-11-07T12:08:04.912Z,18.60
2022-11-07T12:11:03.395Z,18.60
2022-11-07T12:13:49.130Z,18.70
2022-11-07T12:16:51.374Z,18.70
2022-11-07T12:19:24.293Z,18.80
2022-11-07T12:22:24.354Z,18.70
2022-11-07T12:25:01.021Z,18.70
2022-11-07T12:27:35.185Z,18.70
2022-11-07T12:30:22.607Z,18.80
2022-11-07T12:32:59.418Z,18.80
2022-11-07T12:35:44.053Z,18.80
2022-11-07T12:38:29.219Z,18.80
2022-11-07T12:41:17.534Z,18.80
2022-11-07T12:44:25.619Z,18.90
2022-11-07T12:46:57.526Z,18.90
2022-11-07T12:49:33.992Z,18.80
2022-11-07T12:52:38.333Z,18.80
2022-11-07T12:55:14.653Z,18.90
2022-11-07T12:57:42.719Z,18.90
2022-11-07T13:00:20.489Z,18.90
2022-11-07T13:03:05.683Z,18.90
2022-11-07T13:05:47.611Z,18.80
2022-11-07T13:08:38.914Z,18.80
2022-11-07T13:11:17.991Z,18.70
2022-11-07T13:14:03.639Z,18.70
2022-11-07T13:16:35.426Z,18.70
2022-11-07T13:19:25.383Z,18.70
2022-11-07T13:22:17.686Z,18.70
2022-11-07T13:25:16.473Z,18.60
2022-11-07T13:27:47.323Z,18.60
2022-11-07T13:30:14.620Z,18.60
2022-11-07T13:32:45.801Z,18.60
2022-11-07T13:35:35.385Z,18.50
2022-11-07T13:38:16.362Z,18.50
2022-11-07T13:41:04.007Z,18.50
2022-11-07T13:43:44.759Z,18.40
2022-11-07T13:46:31.954Z,18.40
2022-11-07T13:49:06.935Z,18.30
2022-11-07T13:51:44.382Z,18.30
2022-11-07T13:54:27.853Z,18.30
2022-11-07T13:57:06.773Z,18.30
2022-11-07T14:00:00.027Z,18.30
2022-11-07T14:02:29.811Z,18.20
2022-11-07T14:05:16.208Z,18.20
2022-11-07T14:07:51.098Z,18.20
2022-11-07T14:10:31.872Z,18.20
2022-11-07T14:13:09.454Z,18.20
2022-11-07T14:15:43.139Z,18.10
2022-11-07T14:18:16.381Z,18.10
2022-11-07T14:20:48.057Z,18.10
2022-11-07T14:23:15.380Z,18.00
2022-11-07T14:25:42.475Z,18.00
2022-11-07T14:28:17.059Z,18.00
2022-11-07T14:30:48.996Z,18.00
2022-11-07T14:33:23.357Z,17.90
2022-11-07T14:35:52.030Z,17.90
2022-11-07T14:38:26.888Z,17.90
2022-11-07T14:40:58.887Z,17.90
2022-11-07T14:43:26.813Z,17.90
2022-11-07T14:46:14.055Z,17.80
2022-11-07T14:48:44.274Z,17.80
2022-11-07T14:51:14.964Z,17.70
2022-11-07T14:54:03.018Z,17.70
2022-11-07T14:56:35.484Z,17.70
2022-11-07T14:59:02.875Z,17.60
2022-11-07T15:01:34.581Z,17.50
2022-11-07T15:04:30.761Z,17.50
2022-11-07T15:07:10.423Z,17.40
2022-11-07T15:09:37.659Z,17.40
2022-11-07T15:12:16.201Z,17.30
2022-11-07T15:14:43.938Z,17.30
2022-11-07T15:17:23.138Z,17.20
2022-11-07T15:20:07.018Z,17.20
2022-11-07T15:22:38.778Z,17.10
2022-11-07T15:25:24.588Z,17.10
2022-11-07T15:27:52.006Z,17.00
2022-11-07T15:30:33.923Z,17.00
2022-11-07T15:33:01.143Z,16.90
2022-11-07T15:35:44.781Z,16.80
2022-11-07T15:38:19.469Z,16.70
2022-11-07T15:40:47.206Z,16.70
2022-11-07T15:43:14.738Z,16.60
2022-11-07T15:45:43.375Z,16.60
2022-11-07T15:48:26.408Z,16.50
2022-11-07T15:50:53.461Z,16.40
2022-11-07T15:53:23.439Z,16.30
2022-11-07T15:56:01.443Z,16.20
2022-11-07T15:58:29.562Z,16.20
2022-11-07T16:00:57.809Z,16.10
2022-11-07T16:03:27.332Z,16.00
2022-11-07T16:05:57.869Z,15.90
2022-11-07T16:08:25.502Z,15.80
2022-11-07T16:10:55.793Z,15.70
2022-11-07T16:13:22.897Z,15.70
2022-11-07T16:15:53.468Z,15.60
2022-11-07T16:18:22.347Z,15.50
2022-11-07T16:20:50.556Z,15.50
2022-11-07T16:23:18.407Z,15.40
2022-11-07T16:25:48.348Z,15.40
2022-11-07T16:28:25.021Z,15.30
2022-11-07T16:30:52.531Z,15.20
2022-11-07T16:33:19.981Z,15.10
2022-11-07T16:35:52.906Z,15.10
2022-11-07T16:38:22.196Z,15.00
2022-11-07T16:40:49.648Z,14.90
2022-11-07T16:43:17.411Z,14.90
2022-11-07T16:45:47.858Z,14.80
2022-11-07T16:48:24.454Z,14.70
2022-11-07T16:50:52.814Z,14.60
2022-11-07T16:53:20.315Z,14.60
2022-11-07T16:55:53.285Z,14.50
2022-11-07T16:58:26.179Z,14.40
2022-11-07T17:00:54.884Z,14.40
2022-11-07T17:03:22.363Z,14.30
2022-11-07T17:05:55.506Z,14.20
2022-11-07T17:08:29.938Z,14.20
2022-11-07T17:10:56.946Z,14.10
2022-11-07T17:13:23.956Z,14.10
2022-11-07T17:15:51.808Z,14.00
2022-11-07T17:18:21.200Z,13.90
2022-11-07T17:20:51.406Z,13.90
2022-11-07T17:23:22.862Z,13.80
2022-11-07T17:25:54.209Z,13.80
2022-11-07T17:28:22.180Z,13.70
2022-11-07T17:30:49.331Z,13.60
2022-11-07T17:33:16.353Z,13.60
2022-11-07T17:35:43.426Z,13.50
2022-11-07T17:38:16.907Z,13.50
2022-11-07T17:40:44.254Z,13.50
2022-11-07T17:43:11.322Z,13.40
2022-11-07T17:45:38.340Z,13.40
2022-11-07T17:48:05.572Z,13.40
2022-11-07T17:50:32.620Z,13.40
2022-11-07T17:53:00.247Z,13.30
2022-11-07T17:55:27.278Z,13.30
2022-11-07T17:57:54.576Z,13.30
2022-11-07T18:00:24.249Z,13.30
2022-11-07T18:02:52.786Z,13.30
2022-11-07T18:05:22.148Z,13.20
2022-11-07T18:07:49.403Z,13.20
2022-11-07T18:10:17.027Z,13.20
2022-11-07T18:12:44.426Z,13.10
2022-11-07T18:15:14.636Z,13.00
2022-11-07T18:17:41.693Z,13.00
2022-11-07T18:20:10.075Z,13.00
2022-11-07T18:22:37.616Z,13.00
2022-11-07T18:25:08.427Z,12.90
2022-11-07T18:27:36.074Z,12.90
2022-11-07T18:30:07.006Z,12.90
2022-11-07T18:32:36.355Z,12.90
2022-11-07T18:35:06.147Z,12.80
2022-11-07T18:37:33.874Z,12.70
2022-11-07T18:40:00.879Z,12.70
2022-11-07T18:42:29.119Z,12.70
2022-11-07T18:44:56.160Z,12.60
2022-11-07T18:47:23.665Z,12.60
2022-11-07T18:49:55.555Z,12.50
2022-11-07T18:52:24.248Z,12.50
2022-11-07T18:54:51.976Z,12.50
2022-11-07T18:57:18.933Z,12.40
2022-11-07T18:59:46.564Z,12.40
2022-11-07T19:02:14.285Z,12.40
2022-11-07T19:04:43.942Z,12.30
2022-11-07T19:07:10.976Z,12.30
2022-11-07T19:09:38.278Z,12.30
2022-11-07T19:12:05.498Z,12.20
2022-11-07T19:14:32.602Z,12.20
2022-11-07T19:16:59.638Z,12.20
2022-11-07T19:19:26.892Z,12.10
2022-11-07T19:21:53.928Z,12.00
2022-11-07T19:24:21.160Z,12.00
2022-11-07T19:26:48.215Z,12.00
2022-11-07T19:29:16.716Z,12.00
2022-11-07T19:31:43.997Z,11.90
2022-11-07T19:34:11.010Z,11.90
2022-11-07T19:36:38.063Z,11.90
2022-11-07T19:39:05.292Z,11.80
2022-11-07T19:41:32.296Z,11.80
2022-11-07T19:44:01.800Z,11.70
2022-11-07T19:46:28.805Z,11.60
2022-11-07T19:48:56.589Z,11.60
2022-11-07T19:51:24.106Z,11.60
2022-11-07T19:53:56.126Z,11.50
2022-11-07T19:56:24.740Z,11.40
2022-11-07T19:58:51.724Z,11.40
2022-11-07T20:01:22.844Z,11.40
2022-11-07T20:03:52.536Z,11.40
2022-11-07T20:06:23.178Z,11.30
2022-11-07T20:08:50.856Z,11.30
2022-11-07T20:11:20.690Z,11.30
2022-11-07T20:13:48.152Z,11.20
2022-11-07T20:16:15.747Z,11.20
2022-11-07T20:18:43.238Z,11.20
2022-11-07T20:21:16.907Z,11.10
2022-11-07T20:23:45.258Z,11.00
2022-11-07T20:26:17.758Z,11.00
2022-11-07T20:28:46.775Z,11.00
2022-11-07T20:31:15.945Z,11.00
2022-11-07T20:33:43.382Z,11.10
2022-11-07T20:36:13.065Z,11.10
2022-11-07T20:38:40.951Z,11.00
2022-11-07T20:41:08.155Z,11.10
2022-11-07T20:43:35.605Z,11.10
2022-11-07T20:46:07.994Z,11.10
2022-11-07T20:48:36.326Z,11.10
2022-11-07T20:51:11.298Z,11.10
2022-11-07T20:53:39.484Z,11.10
2022-11-07T20:56:07.677Z,11.10
2022-11-07T20:58:37.480Z,11.10
2022-11-07T21:01:06.408Z,11.10
2022-11-07T21:03:34.551Z,11.00
2022-11-07T21:06:01.819Z,11.00
2022-11-07T21:08:31.849Z,11.00
2022-11-07T21:11:01.548Z,11.00
2022-11-07T21:13:28.521Z,11.00
2022-11-07T21:15:55.847Z,10.90
2022-11-07T21:18:22.792Z,10.90
2022-11-07T21:20:49.792Z,10.80
2022-11-07T21:23:17.119Z,10.80
2022-11-07T21:25:47.901Z,10.70
2022-11-07T21:28:17.392Z,10.70
2022-11-07T21:31:01.815Z,10.70
2022-11-07T21:33:29.499Z,10.60
2022-11-07T21:35:56.554Z,10.60
2022-11-07T21:38:24.391Z,10.60
2022-11-07T21:40:51.924Z,10.60
2022-11-07T21:43:19.427Z,10.60
2022-11-07T21:45:46.621Z,10.60
2022-11-07T21:48:13.809Z,10.60
2022-11-07T21:50:45.496Z,10.60
2022-11-07T21:53:13.283Z,10.60
2022-11-07T21:55:40.339Z,10.60
2022-11-07T21:58:07.299Z,10.60
2022-11-07T22:00:36.754Z,10.50
2022-11-07T22:03:04.605Z,10.50
2022-11-07T22:05:31.596Z,10.50
2022-11-07T22:07:58.648Z,10.40
2022-11-07T22:10:25.620Z,10.50
2022-11-07T22:12:52.902Z,10.40
2022-11-07T22:15:20.099Z,10.40
2022-11-07T22:17:47.026Z,10.40
2022-11-07T22:20:14.046Z,10.40
2022-11-07T22:22:41.021Z,10.40
2022-11-07T22:25:08.235Z,10.40
2022-11-07T22:27:37.250Z,10.40
2022-11-07T22:30:05.339Z,10.40
2022-11-07T22:32:32.430Z,10.30
2022-11-07T22:34:59.409Z,10.30
2022-11-07T22:37:26.361Z,10.30
2022-11-07T22:39:53.336Z,10.30
2022-11-07T22:42:23.811Z,10.30
2022-11-07T22:44:51.669Z,10.30
2022-11-07T22:47:18.661Z,10.40
2022-11-07T22:49:45.710Z,10.30
2022-11-07T22:52:12.751Z,10.40
2022-11-07T22:54:39.846Z,10.30
2022-11-07T22:57:06.886Z,10.30
2022-11-07T22:59:33.970Z,10.30
2022-11-07T23:02:00.955Z,10.30
2022-11-07T23:04:32.739Z,10.30
2022-11-07T23:07:00.047Z,10.30
2022-11-07T23:09:27.039Z,10.30
2022-11-07T23:11:54.000Z,10.20
2022-11-07T23:14:22.323Z,10.20
2022-11-07T23:16:52.093Z,10.20
2022-11-07T23:19:21.571Z,10.20
2022-11-07T23:21:49.374Z,10.20
2022-11-07T23:24:16.694Z,10.20
2022-11-07T23:26:44.119Z,10.20
2022-11-07T23:29:17.319Z,10.20
2022-11-07T23:31:46.868Z,10.20
2022-11-07T23:34:14.700Z,10.20
2022-11-07T23:36:44.348Z,10.20
2022-11-07T23:39:17.904Z,10.10
2022-11-07T23:41:45.522Z,10.10
2022-11-07T23:44:13.306Z,10.10
2022-11-07T23:47:00.409Z,10.20
2022-11-07T23:49:45.978Z,10.20
2022-11-07T23:52:13.538Z,10.20
2022-11-07T23:55:00.812Z,10.20
2022-11-07T23:57:28.012Z,10.20
